Time;durP1;ratioP1;P1;durP2;ratioP2;P2;SDS_P1;SDS_P2;PMS_P1;PMS_P2;Temp;Humidity;BMP_temperature;BMP_pressure;BME280_temperature;BME280_humidity;BME280_pressure;Samples;Min_cycle;Max_cycle;Signal;HPM_P1;HPM_P2
2023/07/16 00:01:39;;;;;;;5.05;1.40;;;;;;;;;;6183607;23;20005;-80
2023/07/16 00:04:05;;;;;;;5.63;1.50;;;;;;;;;;6182847;23;20001;-80
2023/07/16 00:06:31;;;;;;;3.40;1.30;;;;;;;;;;6157275;23;20009;-80
2023/07/16 00:08:57;;;;;;;4.70;1.42;;;;;;;;;;6183608;23;20012;-80
2023/07/16 00:11:23;;;;;;;2.75;1.40;;;;;;;;;;6183794;23;20602;-79
2023/07/16 00:13:49;;;;;;;4.07;0.95;;;;;;;;;;6182125;23;20116;-79
2023/07/16 00:16:15;;;;;;;3.15;1.17;;;;;;;;;;6183073;23;20785;-79
2023/07/16 00:18:47;;;;;;;3.35;1.20;;;;;;;;;;6182107;23;20029;-80
2023/07/16 00:21:13;;;;;;;3.15;1.15;;;;;;;;;;6183705;23;20283;-79
2023/07/16 00:23:39;;;;;;;4.60;1.23;;;;;;;;;;6182263;23;20079;-80
2023/07/16 00:26:05;;;;;;;4.43;1.10;;;;;;;;;;6183697;23;20013;-80
2023/07/16 00:28:31;;;;;;;3.55;0.90;;;;;;;;;;6182376;23;20009;-80
2023/07/16 00:30:57;;;;;;;5.30;1.50;;;;;;;;;;6183519;23;20008;-79
2023/07/16 00:33:23;;;;;;;3.40;1.20;;;;;;;;;;6182375;23;20075;-80
2023/07/16 00:35:49;;;;;;;3.97;1.50;;;;;;;;;;6182813;23;20036;-80
2023/07/16 00:38:17;;;;;;;3.13;1.10;;;;;;;;;;6182367;23;20017;-80
2023/07/16 00:40:43;;;;;;;3.88;1.40;;;;;;;;;;6182291;23;20803;-79
2023/07/16 00:43:09;;;;;;;4.22;1.15;;;;;;;;;;6182462;23;20005;-79
2023/07/16 00:45:35;;;;;;;4.43;1.10;;;;;;;;;;6182220;23;20120;-79
2023/07/16 00:48:02;;;;;;;3.67;1.00;;;;;;;;;;6182371;23;20020;-79
2023/07/16 00:50:28;;;;;;;0.70;0.50;;;;;;;;;;6156227;23;20013;-79
2023/07/16 00:52:54;;;;;;;3.33;1.40;;;;;;;;;;6183690;23;20501;-79
2023/07/16 00:55:20;;;;;;;2.78;1.17;;;;;;;;;;6155792;23;20103;-80
2023/07/16 00:57:47;;;;;;;2.45;1.05;;;;;;;;;;6155828;23;20120;-80
2023/07/16 01:00:13;;;;;;;3.60;1.00;;;;;;;;;;6181960;23;20412;-79
2023/07/16 01:02:39;;;;;;;3.15;1.25;;;;;;;;;;6155655;23;20433;-80
2023/07/16 01:05:05;;;;;;;3.10;1.30;;;;;;;;;;6180053;23;20417;-80
2023/07/16 01:07:32;;;;;;;4.72;1.20;;;;;;;;;;6182915;23;20013;-80
2023/07/16 01:09:59;;;;;;;6.03;1.27;;;;;;;;;;6181891;23;20001;-80
2023/07/16 01:12:25;;;;;;;3.63;1.00;;;;;;;;;;6182406;23;20400;-79
2023/07/16 01:14:53;;;;;;;2.80;0.90;;;;;;;;;;6181964;23;20071;-79
2023/07/16 01:17:19;;;;;;;2.75;0.95;;;;;;;;;;6181904;23;20005;-79
2023/07/16 01:19:45;;;;;;;3.15;1.20;;;;;;;;;;6181372;23;20061;-79
2023/07/16 01:22:23;;;;;;;8.52;2.22;;;;;;;;;;6181870;23;20028;-79
2023/07/16 01:25:08;;;;;;;3.22;0.93;;;;;;;;;;6181263;23;20432;-80
2023/07/16 01:27:53;;;;;;;6.47;1.10;;;;;;;;;;6181841;23;20005;-80
2023/07/16 01:30:19;;;;;;;3.40;1.30;;;;;;;;;;6181492;23;20012;-79
2023/07/16 01:32:46;;;;;;;4.78;1.38;;;;;;;;;;6181928;23;20009;-80
2023/07/16 01:35:13;;;;;;;5.43;1.20;;;;;;;;;;6181325;23;20009;-80
2023/07/16 01:37:39;;;;;;;2.72;1.00;;;;;;;;;;6181945;23;20005;-79
2023/07/16 01:40:08;;;;;;;2.22;0.85;;;;;;;;;;6181649;23;20016;-80
2023/07/16 01:42:34;;;;;;;2.65;1.05;;;;;;;;;;6155195;23;20460;-80
2023/07/16 01:45:00;;;;;;;2.90;1.00;;;;;;;;;;6180927;23;20009;-79
2023/07/16 01:47:29;;;;;;;4.43;1.20;;;;;;;;;;6181591;23;20048;-80
2023/07/16 01:49:55;;;;;;;3.47;1.00;;;;;;;;;;6181301;23;20488;-80
2023/07/16 01:52:21;;;;;;;4.35;1.20;;;;;;;;;;6181569;23;20030;-80
2023/07/16 01:54:48;;;;;;;2.92;1.10;;;;;;;;;;6181435;23;20013;-79
2023/07/16 01:57:13;;;;;;;5.15;1.33;;;;;;;;;;6181690;23;20012;-80
2023/07/16 01:59:39;;;;;;;2.35;0.85;;;;;;;;;;6155292;23;20086;-79
2023/07/16 02:02:06;;;;;;;3.22;1.20;;;;;;;;;;6181386;23;20011;-80
2023/07/16 02:04:32;;;;;;;3.67;1.63;;;;;;;;;;6181502;23;20005;-79
2023/07/16 02:06:58;;;;;;;6.18;1.73;;;;;;;;;;6181525;23;20048;-80
2023/07/16 02:09:25;;;;;;;3.53;0.95;;;;;;;;;;6181712;23;20005;-79
2023/07/16 02:11:51;;;;;;;3.75;1.00;;;;;;;;;;6181138;23;20008;-79
2023/07/16 02:14:17;;;;;;;3.20;0.80;;;;;;;;;;6181553;23;20107;-80
2023/07/16 02:16:43;;;;;;;2.97;0.98;;;;;;;;;;6179745;23;20071;-79
2023/07/16 02:19:09;;;;;;;2.03;0.80;;;;;;;;;;6154924;23;20040;-79
2023/07/16 02:21:35;;;;;;;2.45;0.75;;;;;;;;;;6181762;23;20020;-79
2023/07/16 02:24:01;;;;;;;3.17;0.93;;;;;;;;;;6154409;23;20048;-80
2023/07/16 02:26:27;;;;;;;3.58;1.10;;;;;;;;;;6181166;23;20025;-79
2023/07/16 02:28:53;;;;;;;2.63;0.98;;;;;;;;;;6183111;23;20005;-79
2023/07/16 02:31:19;;;;;;;4.72;1.30;;;;;;;;;;6154623;23;20420;-79
2023/07/16 02:33:45;;;;;;;1.98;1.00;;;;;;;;;;6181854;23;20098;-80
2023/07/16 02:36:11;;;;;;;2.83;1.00;;;;;;;;;;6181831;23;20015;-79
2023/07/16 02:38:37;;;;;;;2.88;0.90;;;;;;;;;;6180925;23;20009;-79
2023/07/16 02:41:03;;;;;;;2.17;0.90;;;;;;;;;;6181742;23;20067;-80
2023/07/16 02:43:29;;;;;;;2.28;0.80;;;;;;;;;;6180570;23;20009;-80
2023/07/16 02:45:55;;;;;;;4.80;1.13;;;;;;;;;;6181445;23;20041;-80
2023/07/16 02:48:21;;;;;;;3.13;1.10;;;;;;;;;;6180660;23;20017;-80
2023/07/16 02:50:47;;;;;;;3.33;1.10;;;;;;;;;;6155117;23;20112;-79
2023/07/16 02:53:13;;;;;;;3.58;1.17;;;;;;;;;;6180353;23;20009;-79
2023/07/16 02:55:39;;;;;;;2.95;0.90;;;;;;;;;;6154541;23;20027;-79
2023/07/16 02:58:05;;;;;;;2.47;1.10;;;;;;;;;;6153698;23;20100;-80
2023/07/16 03:00:32;;;;;;;6.38;1.17;;;;;;;;;;6154364;23;20037;-79
2023/07/16 03:02:58;;;;;;;3.63;0.90;;;;;;;;;;6180583;23;20009;-80
2023/07/16 03:05:24;;;;;;;4.57;1.10;;;;;;;;;;6181137;23;20005;-80
2023/07/16 03:07:51;;;;;;;2.47;0.80;;;;;;;;;;6154671;23;20353;-80
2023/07/16 03:10:17;;;;;;;2.33;0.93;;;;;;;;;;6154922;23;20009;-80
2023/07/16 03:12:43;;;;;;;2.60;0.95;;;;;;;;;;6180547;23;20017;-80
2023/07/16 03:15:09;;;;;;;2.85;1.08;;;;;;;;;;6154788;23;20104;-80
2023/07/16 03:17:35;;;;;;;3.08;1.10;;;;;;;;;;6181099;23;20432;-79
2023/07/16 03:20:02;;;;;;;2.42;0.98;;;;;;;;;;6181411;23;20009;-80
2023/07/16 03:22:28;;;;;;;2.75;1.00;;;;;;;;;;6180823;23;20025;-80
2023/07/16 03:24:54;;;;;;;3.55;1.13;;;;;;;;;;6153735;23;20084;-80
2023/07/16 03:27:20;;;;;;;2.72;0.88;;;;;;;;;;6180771;23;20001;-80
2023/07/16 03:29:46;;;;;;;2.58;0.88;;;;;;;;;;6152978;23;20432;-80
2023/07/16 03:32:12;;;;;;;3.83;1.33;;;;;;;;;;6181135;23;20009;-80
2023/07/16 03:34:38;;;;;;;3.10;1.05;;;;;;;;;;6180174;23;20061;-80
2023/07/16 03:37:04;;;;;;;4.82;1.05;;;;;;;;;;6155005;23;20013;-80
2023/07/16 03:39:30;;;;;;;3.90;1.13;;;;;;;;;;6180661;23;20005;-79
2023/07/16 03:41:56;;;;;;;3.28;0.88;;;;;;;;;;6180812;23;20005;-79
2023/07/16 03:44:22;;;;;;;2.70;1.10;;;;;;;;;;6154275;23;20009;-79
2023/07/16 03:46:48;;;;;;;2.55;1.10;;;;;;;;;;6154713;23;20004;-79
2023/07/16 03:49:14;;;;;;;3.13;1.58;;;;;;;;;;6153858;23;20080;-80
2023/07/16 03:51:40;;;;;;;3.17;1.10;;;;;;;;;;6154620;23;20357;-80
2023/07/16 03:54:06;;;;;;;2.60;0.90;;;;;;;;;;6180243;23;20005;-80
2023/07/16 03:56:32;;;;;;;2.70;0.98;;;;;;;;;;6181401;23;20059;-80
2023/07/16 03:58:58;;;;;;;3.47;1.50;;;;;;;;;;6180026;23;20013;-80
2023/07/16 04:01:24;;;;;;;3.65;1.10;;;;;;;;;;6181423;23;20048;-80
2023/07/16 04:03:50;;;;;;;3.13;1.25;;;;;;;;;;6180211;23;20039;-80
2023/07/16 04:06:16;;;;;;;3.33;1.00;;;;;;;;;;6181219;23;20085;-80
2023/07/16 04:08:42;;;;;;;2.67;1.10;;;;;;;;;;6180448;23;20016;-80
2023/07/16 04:11:08;;;;;;;4.75;1.10;;;;;;;;;;6154771;23;20021;-79
2023/07/16 04:13:34;;;;;;;2.40;0.90;;;;;;;;;;6180201;23;20024;-80
2023/07/16 04:16:00;;;;;;;2.42;0.90;;;;;;;;;;6181434;23;20017;-80
2023/07/16 04:18:26;;;;;;;2.88;0.73;;;;;;;;;;6154696;23;20413;-79
2023/07/16 04:20:53;;;;;;;2.40;1.10;;;;;;;;;;6154555;23;20013;-79
2023/07/16 04:23:19;;;;;;;3.85;0.80;;;;;;;;;;6180792;23;20038;-79
2023/07/16 04:25:45;;;;;;;2.50;1.00;;;;;;;;;;6181281;23;20008;-79
2023/07/16 04:28:12;;;;;;;2.45;1.13;;;;;;;;;;6181402;23;20436;-79
2023/07/16 04:30:38;;;;;;;1.50;0.73;;;;;;;;;;6180458;23;20362;-79
2023/07/16 04:33:04;;;;;;;2.25;0.70;;;;;;;;;;6182062;23;20009;-79
2023/07/16 04:35:30;;;;;;;2.10;0.93;;;;;;;;;;6181646;23;20341;-79
2023/07/16 04:37:56;;;;;;;2.63;1.30;;;;;;;;;;6182312;23;20009;-80
2023/07/16 04:40:22;;;;;;;3.92;0.95;;;;;;;;;;6181698;23;20009;-80
2023/07/16 04:42:48;;;;;;;2.58;1.00;;;;;;;;;;6183026;23;20322;-80
2023/07/16 04:45:14;;;;;;;9.93;0.93;;;;;;;;;;6155427;23;20017;-79
2023/07/16 04:47:40;;;;;;;3.22;1.20;;;;;;;;;;6182771;23;20008;-79
2023/07/16 04:50:07;;;;;;;2.05;0.90;;;;;;;;;;6155326;23;20017;-80
2023/07/16 04:52:33;;;;;;;4.63;1.10;;;;;;;;;;6156322;23;20005;-80
2023/07/16 04:54:59;;;;;;;2.75;1.02;;;;;;;;;;6155385;23;20056;-80
2023/07/16 04:57:25;;;;;;;3.22;1.02;;;;;;;;;;6181755;23;20321;-80
2023/07/16 04:59:51;;;;;;;4.03;1.10;;;;;;;;;;6182307;23;20013;-80
2023/07/16 05:02:17;;;;;;;3.05;1.20;;;;;;;;;;6182137;23;20325;-80
2023/07/16 05:04:44;;;;;;;2.75;0.90;;;;;;;;;;6182295;23;20013;-79
2023/07/16 05:07:10;;;;;;;2.38;0.95;;;;;;;;;;6181771;23;20005;-79
2023/07/16 05:09:36;;;;;;;1.63;0.77;;;;;;;;;;6181921;23;20040;-80
2023/07/16 05:12:02;;;;;;;2.05;0.82;;;;;;;;;;6154957;23;20036;-80
2023/07/16 05:14:29;;;;;;;1.45;0.73;;;;;;;;;;6182422;23;20009;-79
2023/07/16 05:16:55;;;;;;;2.40;0.90;;;;;;;;;;6181892;23;20024;-80
2023/07/16 05:19:21;;;;;;;3.50;0.90;;;;;;;;;;6182541;23;20036;-79
2023/07/16 05:21:47;;;;;;;3.30;0.80;;;;;;;;;;6155121;23;20451;-80
2023/07/16 05:24:13;;;;;;;2.80;1.00;;;;;;;;;;6155522;23;20036;-80
2023/07/16 05:26:39;;;;;;;3.88;0.85;;;;;;;;;;6181945;23;20434;-79
2023/07/16 05:29:05;;;;;;;2.83;1.02;;;;;;;;;;6154611;23;20019;-79
2023/07/16 05:31:31;;;;;;;1.63;0.75;;;;;;;;;;6182319;23;20013;-80
2023/07/16 05:33:57;;;;;;;1.98;0.80;;;;;;;;;;6182092;23;20016;-79
2023/07/16 05:36:23;;;;;;;1.67;0.80;;;;;;;;;;6182299;23;20361;-79
2023/07/16 05:38:49;;;;;;;2.35;0.70;;;;;;;;;;6181549;23;20009;-80
2023/07/16 05:41:15;;;;;;;1.60;0.90;;;;;;;;;;6155112;23;20017;-80
2023/07/16 05:43:41;;;;;;;2.13;0.80;;;;;;;;;;6181692;23;20076;-80
2023/07/16 05:46:07;;;;;;;2.67;0.70;;;;;;;;;;6181582;23;20013;-79
2023/07/16 05:48:33;;;;;;;1.55;0.70;;;;;;;;;;6182103;23;20012;-80
2023/07/16 05:50:59;;;;;;;3.00;0.88;;;;;;;;;;6181337;23;20024;-80
2023/07/16 05:53:25;;;;;;;2.42;1.20;;;;;;;;;;6181739;23;20046;-79
2023/07/16 05:55:52;;;;;;;1.70;0.80;;;;;;;;;;6181809;23;20020;-79
2023/07/16 05:58:18;;;;;;;2.25;0.75;;;;;;;;;;6181545;23;20015;-80
2023/07/16 06:00:44;;;;;;;1.60;0.75;;;;;;;;;;6181377;23;20009;-79
2023/07/16 06:03:10;;;;;;;4.60;0.90;;;;;;;;;;6181909;23;20040;-79
2023/07/16 06:05:36;;;;;;;2.88;1.00;;;;;;;;;;6181621;23;20016;-80
2023/07/16 06:08:03;;;;;;;1.85;0.70;;;;;;;;;;6181608;23;20057;-79
2023/07/16 06:10:29;;;;;;;1.50;0.70;;;;;;;;;;6181283;23;20625;-80
2023/07/16 06:12:55;;;;;;;2.40;0.82;;;;;;;;;;6181419;23;20025;-79
2023/07/16 06:15:21;;;;;;;1.90;0.70;;;;;;;;;;6181482;23;20083;-80
2023/07/16 06:17:47;;;;;;;1.52;0.70;;;;;;;;;;6181405;23;20426;-79
2023/07/16 06:20:13;;;;;;;2.25;0.80;;;;;;;;;;6154907;23;20021;-80
2023/07/16 06:22:39;;;;;;;2.83;0.80;;;;;;;;;;6154698;23;20009;-80
2023/07/16 06:25:05;;;;;;;3.03;0.68;;;;;;;;;;6181375;23;20020;-79
2023/07/16 06:27:31;;;;;;;2.30;0.70;;;;;;;;;;6180949;23;20004;-80
2023/07/16 06:29:57;;;;;;;2.25;0.85;;;;;;;;;;6181424;23;20576;-80
2023/07/16 06:32:23;;;;;;;2.08;0.90;;;;;;;;;;6151551;23;20026;-81
2023/07/16 06:34:49;;;;;;;17.00;1.85;;;;;;;;;;6151679;23;20005;-82
2023/07/16 06:37:15;;;;;;;6.97;1.48;;;;;;;;;;6149407;23;20009;-81
2023/07/16 06:39:41;;;;;;;8.02;1.85;;;;;;;;;;6151405;23;20080;-81
2023/07/16 06:42:07;;;;;;;8.50;1.70;;;;;;;;;;6151412;23;20037;-81
2023/07/16 06:44:33;;;;;;;3.28;1.13;;;;;;;;;;6152228;23;20002;-81
2023/07/16 06:46:59;;;;;;;3.72;1.40;;;;;;;;;;6151170;23;20084;-80
2023/07/16 06:49:25;;;;;;;4.28;1.10;;;;;;;;;;6151887;23;20009;-80
2023/07/16 06:51:51;;;;;;;5.75;0.98;;;;;;;;;;6151073;23;20444;-81
2023/07/16 06:54:17;;;;;;;3.90;1.27;;;;;;;;;;6151336;23;20076;-80
2023/07/16 06:56:43;;;;;;;4.80;1.23;;;;;;;;;;6151317;23;20313;-80
2023/07/16 06:59:09;;;;;;;1.85;0.90;;;;;;;;;;6152255;23;20009;-80
2023/07/16 07:01:35;;;;;;;2.08;1.00;;;;;;;;;;6149927;23;20005;-81
2023/07/16 07:04:01;;;;;;;3.00;0.90;;;;;;;;;;6151478;23;20017;-81
2023/07/16 07:06:27;;;;;;;5.18;0.93;;;;;;;;;;6150713;23;20005;-81
2023/07/16 07:08:53;;;;;;;1.98;0.75;;;;;;;;;;6151112;23;20084;-81
2023/07/16 07:11:19;;;;;;;2.30;0.90;;;;;;;;;;6150535;23;20009;-81
2023/07/16 07:13:45;;;;;;;2.67;0.80;;;;;;;;;;6149966;23;20687;-81
2023/07/16 07:16:11;;;;;;;3.20;0.90;;;;;;;;;;6151882;23;20029;-81
2023/07/16 07:18:37;;;;;;;2.78;1.10;;;;;;;;;;6153655;23;20017;-81
2023/07/16 07:21:03;;;;;;;2.40;0.93;;;;;;;;;;6153027;23;20013;-81
2023/07/16 07:23:29;;;;;;;4.55;1.27;;;;;;;;;;6152179;23;20433;-81
2023/07/16 07:25:55;;;;;;;3.22;1.27;;;;;;;;;;6151294;23;20010;-80
2023/07/16 07:28:21;;;;;;;8.43;1.33;;;;;;;;;;6151077;23;20016;-81
2023/07/16 07:30:47;;;;;;;2.33;0.93;;;;;;;;;;6149742;23;20088;-80
2023/07/16 07:33:13;;;;;;;2.28;0.90;;;;;;;;;;6150609;23;20056;-80
2023/07/16 07:35:39;;;;;;;4.70;1.10;;;;;;;;;;6149303;23;20010;-80
2023/07/16 07:38:05;;;;;;;4.05;1.05;;;;;;;;;;6151096;23;20100;-81
2023/07/16 07:40:31;;;;;;;2.33;0.93;;;;;;;;;;6150978;23;20036;-80
2023/07/16 07:42:57;;;;;;;2.10;0.77;;;;;;;;;;6150591;23;20083;-80
2023/07/16 07:45:24;;;;;;;2.97;1.15;;;;;;;;;;6149917;23;20100;-81
2023/07/16 07:47:50;;;;;;;3.72;1.20;;;;;;;;;;6150631;23;20010;-81
2023/07/16 07:50:16;;;;;;;2.20;1.13;;;;;;;;;;6149618;23;20112;-81
2023/07/16 07:52:42;;;;;;;2.33;1.20;;;;;;;;;;6150908;23;20010;-80
2023/07/16 07:55:08;;;;;;;4.82;1.10;;;;;;;;;;6151102;23;20709;-81
2023/07/16 07:57:34;;;;;;;3.33;1.00;;;;;;;;;;6150777;23;20009;-81
2023/07/16 08:00:00;;;;;;;5.28;1.20;;;;;;;;;;6150863;23;20010;-81
2023/07/16 08:02:26;;;;;;;3.95;1.08;;;;;;;;;;6150880;23;20083;-81
2023/07/16 08:04:55;;;;;;;2.33;1.13;;;;;;;;;;6150863;23;20706;-81
2023/07/16 08:07:25;;;;;;;3.10;1.00;;;;;;;;;;6152824;23;20010;-81
2023/07/16 08:09:51;;;;;;;2.38;1.10;;;;;;;;;;6151691;23;20108;-81
2023/07/16 08:12:17;;;;;;;2.45;1.02;;;;;;;;;;6152808;23;20037;-81
2023/07/16 08:14:43;;;;;;;2.58;1.00;;;;;;;;;;6128611;23;20435;-80
2023/07/16 08:17:09;;;;;;;2.85;0.80;;;;;;;;;;6097038;23;20018;-80
2023/07/16 08:19:35;;;;;;;2.22;0.88;;;;;;;;;;6123837;23;20080;-81
2023/07/16 08:22:01;;;;;;;2.67;1.00;;;;;;;;;;6123345;23;20016;-81
2023/07/16 08:24:27;;;;;;;2.30;1.08;;;;;;;;;;6123715;23;20006;-81
2023/07/16 08:26:53;;;;;;;5.57;1.60;;;;;;;;;;6123500;23;20010;-81
2023/07/16 08:29:19;;;;;;;3.70;1.00;;;;;;;;;;6123190;23;20010;-81
2023/07/16 08:31:45;;;;;;;3.05;1.10;;;;;;;;;;6122552;23;20322;-81
2023/07/16 08:34:11;;;;;;;5.15;1.23;;;;;;;;;;6123317;23;20028;-81
2023/07/16 08:36:37;;;;;;;6.15;1.17;;;;;;;;;;6122998;23;20106;-81
2023/07/16 08:39:04;;;;;;;2.90;1.20;;;;;;;;;;6123314;23;20010;-81
2023/07/16 08:41:30;;;;;;;2.38;1.10;;;;;;;;;;6097634;23;20006;-81
2023/07/16 08:43:56;;;;;;;3.72;1.42;;;;;;;;;;6097515;23;20006;-81
2023/07/16 08:46:23;;;;;;;4.88;1.40;;;;;;;;;;6123127;23;20115;-81
2023/07/16 08:48:49;;;;;;;4.57;1.90;;;;;;;;;;6097313;23;20010;-81
2023/07/16 08:51:16;;;;;;;5.32;1.00;;;;;;;;;;6097606;23;20653;-81
2023/07/16 08:53:42;;;;;;;3.10;1.33;;;;;;;;;;6096767;23;20028;-81
2023/07/16 08:56:08;;;;;;;3.25;1.50;;;;;;;;;;6097092;23;20057;-81
2023/07/16 08:58:35;;;;;;;3.03;1.20;;;;;;;;;;6123511;23;20058;-81
2023/07/16 09:01:01;;;;;;;3.88;1.10;;;;;;;;;;6123911;23;20633;-81
2023/07/16 09:03:28;;;;;;;3.15;1.50;;;;;;;;;;6096850;23;20535;-81
2023/07/16 09:05:54;;;;;;;2.60;1.23;;;;;;;;;;6097160;23;20028;-81
2023/07/16 09:08:20;;;;;;;3.33;1.40;;;;;;;;;;6122895;23;20061;-81
2023/07/16 09:10:54;;;;;;;5.78;1.00;;;;;;;;;;6097058;23;20014;-81
2023/07/16 09:13:20;;;;;;;2.65;1.13;;;;;;;;;;6122911;23;20021;-81
2023/07/16 09:15:51;;;;;;;3.00;1.10;;;;;;;;;;6097104;23;20017;-81
2023/07/16 09:18:20;;;;;;;4.77;1.30;;;;;;;;;;6096012;23;20056;-81
2023/07/16 09:20:46;;;;;;;3.45;1.08;;;;;;;;;;6096744;23;20006;-81
2023/07/16 09:23:12;;;;;;;4.28;1.30;;;;;;;;;;6096602;23;20014;-81
2023/07/16 09:25:40;;;;;;;4.13;1.20;;;;;;;;;;6121800;23;20070;-82
2023/07/16 09:28:06;;;;;;;3.58;1.10;;;;;;;;;;6122215;23;20033;-80
2023/07/16 09:30:35;;;;;;;4.65;1.35;;;;;;;;;;6096210;23;20025;-81
2023/07/16 09:33:10;;;;;;;2.97;1.15;;;;;;;;;;6122198;23;20029;-81
2023/07/16 09:35:36;;;;;;;3.72;1.33;;;;;;;;;;6095986;23;20442;-81
2023/07/16 09:38:03;;;;;;;3.33;1.10;;;;;;;;;;6096865;23;20022;-81
2023/07/16 09:40:29;;;;;;;3.95;1.20;;;;;;;;;;6096348;23;20010;-81
2023/07/16 09:42:56;;;;;;;5.95;1.40;;;;;;;;;;6096658;23;20025;-81
2023/07/16 09:45:22;;;;;;;3.53;1.45;;;;;;;;;;6121887;23;20442;-81
2023/07/16 09:47:48;;;;;;;4.55;1.95;;;;;;;;;;6122995;23;20017;-81
2023/07/16 09:50:14;;;;;;;4.75;2.05;;;;;;;;;;6122069;23;20030;-82
2023/07/16 09:52:42;;;;;;;4.15;1.17;;;;;;;;;;6122539;23;20032;-82
2023/07/16 09:55:09;;;;;;;8.95;1.60;;;;;;;;;;6122325;23;20299;-81
2023/07/16 09:57:39;;;;;;;3.22;1.15;;;;;;;;;;6096433;23;20025;-81
2023/07/16 10:00:12;;;;;;;4.82;1.30;;;;;;;;;;6095906;23;20010;-82
2023/07/16 10:02:39;;;;;;;3.85;1.30;;;;;;;;;;6096516;23;20022;-81
2023/07/16 10:05:18;;;;;;;3.53;1.30;;;;;;;;;;6122590;23;20002;-82
2023/07/16 10:07:51;;;;;;;4.28;1.00;;;;;;;;;;6096568;23;20664;-82
2023/07/16 10:10:17;;;;;;;2.45;1.00;;;;;;;;;;6096115;23;20014;-81
2023/07/16 10:12:43;;;;;;;4.80;1.25;;;;;;;;;;6123253;23;20014;-81
2023/07/16 10:15:12;;;;;;;4.93;1.25;;;;;;;;;;6096304;23;20061;-81
2023/07/16 10:17:38;;;;;;;3.13;1.27;;;;;;;;;;6096675;23;20022;-82
2023/07/16 10:20:10;;;;;;;1.98;0.90;;;;;;;;;;6097192;23;20037;-82
2023/07/16 10:22:40;;;;;;;4.13;1.05;;;;;;;;;;6122547;23;20018;-81
2023/07/16 10:25:09;;;;;;;4.88;1.05;;;;;;;;;;6095768;23;20522;-82
2023/07/16 10:27:35;;;;;;;3.95;1.13;;;;;;;;;;6121993;23;20014;-81
2023/07/16 10:30:02;;;;;;;2.95;1.10;;;;;;;;;;6121800;23;20017;-82
2023/07/16 10:32:29;;;;;;;5.13;1.20;;;;;;;;;;6121445;23;20750;-82
2023/07/16 10:34:56;;;;;;;3.92;1.20;;;;;;;;;;6096034;23;20010;-82
2023/07/16 10:37:22;;;;;;;3.40;1.35;;;;;;;;;;6095582;23;20113;-82
2023/07/16 10:39:49;;;;;;;5.65;1.58;;;;;;;;;;6121581;23;20033;-81
2023/07/16 10:42:16;;;;;;;4.63;1.33;;;;;;;;;;6095648;23;20559;-81
2023/07/16 10:44:42;;;;;;;2.85;1.40;;;;;;;;;;6122916;23;20025;-82
2023/07/16 10:47:08;;;;;;;4.97;1.35;;;;;;;;;;6096178;23;20307;-82
2023/07/16 10:49:34;;;;;;;3.17;1.30;;;;;;;;;;6095930;23;20010;-82
2023/07/16 10:52:01;;;;;;;3.35;1.27;;;;;;;;;;6094474;23;20388;-82
2023/07/16 10:54:27;;;;;;;3.72;1.48;;;;;;;;;;6122412;23;20049;-82
2023/07/16 10:56:53;;;;;;;3.30;1.50;;;;;;;;;;6121660;23;20021;-82
2023/07/16 10:59:19;;;;;;;3.08;1.10;;;;;;;;;;6122183;23;20042;-82
2023/07/16 11:01:46;;;;;;;4.07;1.40;;;;;;;;;;6095786;23;20337;-82
2023/07/16 11:04:12;;;;;;;5.72;1.90;;;;;;;;;;6096324;23;20006;-82
2023/07/16 11:06:38;;;;;;;3.13;1.35;;;;;;;;;;6095672;23;20010;-82
2023/07/16 11:09:07;;;;;;;4.95;1.33;;;;;;;;;;6121675;23;20037;-82
2023/07/16 11:11:33;;;;;;;2.83;1.30;;;;;;;;;;6095543;23;20041;-82
2023/07/16 11:13:59;;;;;;;2.42;1.10;;;;;;;;;;6096055;23;20010;-81
2023/07/16 11:16:25;;;;;;;4.90;1.10;;;;;;;;;;6121786;23;20303;-82
2023/07/16 11:18:54;;;;;;;4.07;1.40;;;;;;;;;;6095219;23;20477;-82
2023/07/16 11:21:20;;;;;;;3.30;1.48;;;;;;;;;;6095872;23;20017;-82
2023/07/16 11:23:46;;;;;;;2.92;1.25;;;;;;;;;;6121047;23;20029;-82
2023/07/16 11:26:12;;;;;;;3.33;1.23;;;;;;;;;;6095696;23;20033;-82
2023/07/16 11:28:42;;;;;;;6.32;1.27;;;;;;;;;;6095455;23;20053;-82
2023/07/16 11:31:15;;;;;;;3.90;1.35;;;;;;;;;;6095322;23;20016;-81
2023/07/16 11:33:44;;;;;;;8.20;1.40;;;;;;;;;;6095516;23;20033;-82
2023/07/16 11:36:10;;;;;;;5.00;1.50;;;;;;;;;;6094604;23;20093;-81
2023/07/16 11:38:37;;;;;;;2.10;1.25;;;;;;;;;;6121259;23;20058;-82
2023/07/16 11:41:03;;;;;;;5.40;1.73;;;;;;;;;;6095555;23;20680;-81
2023/07/16 11:43:29;;;;;;;4.00;1.48;;;;;;;;;;6096153;23;20066;-82
2023/07/16 11:45:55;;;;;;;2.95;1.50;;;;;;;;;;6096302;23;20010;-82
2023/07/16 11:48:21;;;;;;;2.97;1.20;;;;;;;;;;6096296;23;20434;-82
2023/07/16 11:50:47;;;;;;;1.40;0.95;;;;;;;;;;6121643;23;20010;-82
2023/07/16 11:53:13;;;;;;;2.35;1.20;;;;;;;;;;6095929;23;20029;-82
2023/07/16 11:55:39;;;;;;;3.95;1.48;;;;;;;;;;6121803;23;20085;-80
2023/07/16 11:58:05;;;;;;;2.78;1.20;;;;;;;;;;6095424;23;20057;-82
2023/07/16 12:00:31;;;;;;;3.10;1.55;;;;;;;;;;6095721;23;20002;-82
2023/07/16 12:02:57;;;;;;;4.03;1.33;;;;;;;;;;6121819;23;20024;-82
2023/07/16 12:05:27;;;;;;;3.65;1.08;;;;;;;;;;6121654;23;20422;-82
2023/07/16 12:07:53;;;;;;;2.58;1.00;;;;;;;;;;6094996;23;20014;-82
2023/07/16 12:10:20;;;;;;;3.67;1.48;;;;;;;;;;6121800;23;20013;-81
2023/07/16 12:12:46;;;;;;;2.28;1.15;;;;;;;;;;6121416;23;20014;-82
2023/07/16 12:15:12;;;;;;;2.97;1.50;;;;;;;;;;6095740;23;20037;-81
2023/07/16 12:17:38;;;;;;;2.25;1.10;;;;;;;;;;6121601;23;20018;-82
2023/07/16 12:20:05;;;;;;;4.00;1.27;;;;;;;;;;6095917;23;20010;-82
2023/07/16 12:22:31;;;;;;;2.38;1.20;;;;;;;;;;6122261;23;20036;-82
2023/07/16 12:24:57;;;;;;;2.05;1.13;;;;;;;;;;6095588;23;20093;-82
2023/07/16 12:27:23;;;;;;;4.88;1.38;;;;;;;;;;6121806;23;20440;-81
2023/07/16 12:29:49;;;;;;;2.17;1.05;;;;;;;;;;6121731;23;20081;-82
2023/07/16 12:32:15;;;;;;;2.58;1.13;;;;;;;;;;6121344;23;20060;-81
2023/07/16 12:34:41;;;;;;;2.47;1.00;;;;;;;;;;6121080;23;20081;-82
2023/07/16 12:37:07;;;;;;;4.35;1.23;;;;;;;;;;6095737;23;20097;-82
2023/07/16 12:39:33;;;;;;;2.80;1.00;;;;;;;;;;6094837;23;20275;-82
2023/07/16 12:41:59;;;;;;;3.33;1.38;;;;;;;;;;6122317;23;20014;-82
2023/07/16 12:44:25;;;;;;;3.95;1.50;;;;;;;;;;6121948;23;20073;-82
2023/07/16 12:46:51;;;;;;;2.97;1.30;;;;;;;;;;6122148;23;20073;-81
2023/07/16 12:49:18;;;;;;;4.65;1.35;;;;;;;;;;6095547;23;20338;-82
2023/07/16 12:51:44;;;;;;;2.53;1.42;;;;;;;;;;6096117;23;20372;-81
2023/07/16 12:54:10;;;;;;;2.30;1.30;;;;;;;;;;6096661;23;20445;-81
2023/07/16 12:56:36;;;;;;;3.67;1.40;;;;;;;;;;6097702;23;20025;-82
2023/07/16 12:59:03;;;;;;;4.32;1.60;;;;;;;;;;6097181;23;20020;-82
2023/07/16 13:01:30;;;;;;;2.63;1.15;;;;;;;;;;6123896;23;20006;-82
2023/07/16 13:03:56;;;;;;;2.60;1.13;;;;;;;;;;6097145;23;20483;-82
2023/07/16 13:06:22;;;;;;;2.40;1.10;;;;;;;;;;6097594;23;20044;-81
2023/07/16 13:08:48;;;;;;;2.55;1.10;;;;;;;;;;6122454;23;20104;-82
2023/07/16 13:11:14;;;;;;;3.30;1.23;;;;;;;;;;6097485;23;20006;-82
2023/07/16 13:13:42;;;;;;;4.05;1.20;;;;;;;;;;6096713;23;20780;-82
2023/07/16 13:16:08;;;;;;;3.55;1.30;;;;;;;;;;6097508;23;20105;-82
2023/07/16 13:18:34;;;;;;;2.47;1.33;;;;;;;;;;6121976;23;20014;-82
2023/07/16 13:21:00;;;;;;;2.33;1.02;;;;;;;;;;6097431;23;20330;-82
2023/07/16 13:23:26;;;;;;;2.85;1.15;;;;;;;;;;6096740;23;20021;-82
2023/07/16 13:25:52;;;;;;;5.47;1.48;;;;;;;;;;6097033;23;20016;-82
2023/07/16 13:28:18;;;;;;;3.67;1.35;;;;;;;;;;6123401;23;20014;-82
2023/07/16 13:30:44;;;;;;;4.18;1.55;;;;;;;;;;6122699;23;20060;-82
2023/07/16 13:33:10;;;;;;;2.95;1.20;;;;;;;;;;6122986;23;20438;-81
2023/07/16 13:35:36;;;;;;;4.82;1.30;;;;;;;;;;6122315;23;20010;-82
2023/07/16 13:38:02;;;;;;;4.63;1.30;;;;;;;;;;6096338;23;20021;-81
2023/07/16 13:40:28;;;;;;;3.03;1.25;;;;;;;;;;6122283;23;20026;-81
2023/07/16 13:42:54;;;;;;;5.72;1.63;;;;;;;;;;6096799;23;20025;-81
2023/07/16 13:45:20;;;;;;;3.78;1.35;;;;;;;;;;6096463;23;20013;-81
2023/07/16 13:47:46;;;;;;;2.75;1.23;;;;;;;;;;6123102;23;20275;-82
2023/07/16 13:50:12;;;;;;;6.40;1.65;;;;;;;;;;6096420;23;20035;-82
2023/07/16 13:52:38;;;;;;;2.67;1.17;;;;;;;;;;6122866;23;20021;-81
2023/07/16 13:55:05;;;;;;;3.33;1.20;;;;;;;;;;6096465;23;20820;-81
2023/07/16 13:57:31;;;;;;;3.45;1.02;;;;;;;;;;6096733;23;20389;-80
2023/07/16 13:59:57;;;;;;;3.17;1.17;;;;;;;;;;6096154;23;20010;-79
2023/07/16 14:02:23;;;;;;;8.73;1.50;;;;;;;;;;6096516;23;20426;-81
2023/07/16 14:04:49;;;;;;;3.40;1.20;;;;;;;;;;6096670;23;20005;-82
2023/07/16 14:07:15;;;;;;;3.10;1.45;;;;;;;;;;6096361;23;20018;-82
2023/07/16 14:09:41;;;;;;;4.03;1.20;;;;;;;;;;6122770;23;20032;-81
2023/07/16 14:12:07;;;;;;;2.80;1.30;;;;;;;;;;6122415;23;20018;-82
2023/07/16 14:14:34;;;;;;;3.15;1.08;;;;;;;;;;6122437;23;20499;-82
2023/07/16 14:17:00;;;;;;;5.00;1.60;;;;;;;;;;6096577;23;20097;-81
2023/07/16 14:19:26;;;;;;;3.25;1.33;;;;;;;;;;6096789;23;20042;-82
2023/07/16 14:21:52;;;;;;;4.10;1.60;;;;;;;;;;6095928;23;20018;-82
2023/07/16 14:24:18;;;;;;;5.07;1.90;;;;;;;;;;6096974;23;20368;-82
2023/07/16 14:26:44;;;;;;;4.20;1.33;;;;;;;;;;6122904;23;20017;-81
2023/07/16 14:29:11;;;;;;;4.75;1.38;;;;;;;;;;6096593;23;20014;-82
2023/07/16 14:31:37;;;;;;;4.57;1.92;;;;;;;;;;6095898;23;20013;-81
2023/07/16 14:34:03;;;;;;;4.10;1.38;;;;;;;;;;6095858;23;20021;-81
2023/07/16 14:36:29;;;;;;;4.00;1.17;;;;;;;;;;6095738;23;20013;-82
2023/07/16 14:38:55;;;;;;;6.05;1.60;;;;;;;;;;6096478;23;20016;-81